Cape Hatteras Natl Seashore, North Carolina
Current Conditions -  °F | °C
As of 6:51 AM on Friday 28 Nov 2014 (Local Time) from KHSE Reporting Station
Clear Clear  
Wind Chill: 32°   Ceiling: Unl
Heat Index: 39°   Visibility: 10mi
Dew Point: 31°   Wind: 10mph
Humidity: 73%   Direction: 340°NNW
Pressure: 30.24"   Gusts: 22mph
Location:  35.22°N, 75.68°W
Report Text: KHSE 281151Z AUTO 34009G19KT 320V030 10SM CLR 04/M01 A3024 RMK AO2 SLP240 T00391006 10056 20039 53018 TSNO
Loading
Personal Weather Stations






























Interactive Weather Map New forecast layout! Learn more

10-Day Weather Forecast

Advertisements
Track Severe Weather on mobile